createdAt,value
2022-08-09T00:00:44.660Z,0.00
2022-08-09T00:01:54.770Z,0.00
2022-08-09T00:02:48.974Z,0.00
2022-08-09T00:04:05.620Z,0.00
2022-08-09T00:04:42.595Z,0.00
2022-08-09T00:06:19.426Z,0.00
2022-08-09T00:06:44.352Z,0.00
2022-08-09T00:07:44.550Z,0.00
2022-08-09T00:08:42.458Z,0.00
2022-08-09T00:09:42.406Z,0.00
2022-08-09T00:10:42.366Z,0.00
2022-08-09T00:12:03.387Z,0.00
2022-08-09T00:12:42.297Z,0.00
2022-08-09T00:13:42.257Z,0.00
2022-08-09T00:14:42.236Z,0.00
2022-08-09T00:15:59.638Z,0.00
2022-08-09T00:16:42.148Z,0.00
2022-08-09T00:18:05.861Z,0.00
2022-08-09T00:18:42.083Z,0.00
2022-08-09T00:19:42.037Z,0.00
2022-08-09T00:20:49.762Z,0.00
2022-08-09T00:21:43.238Z,0.00
2022-08-09T00:22:41.923Z,0.00
2022-08-09T00:23:55.884Z,0.00
2022-08-09T00:24:41.850Z,0.00
2022-08-09T00:25:41.811Z,0.00
2022-08-09T00:26:41.775Z,0.00
2022-08-09T00:27:42.943Z,0.00
2022-08-09T00:28:41.712Z,0.00
2022-08-09T00:30:23.486Z,0.00
2022-08-09T00:30:41.636Z,0.00
2022-08-09T00:31:59.452Z,0.00
2022-08-09T00:32:41.876Z,0.00
2022-08-09T00:33:50.262Z,0.00
2022-08-09T00:34:46.433Z,0.00
2022-08-09T00:35:42.778Z,0.00
2022-08-09T00:36:41.760Z,0.00
2022-08-09T00:37:41.367Z,0.00
2022-08-09T00:38:41.328Z,0.00
2022-08-09T00:40:12.258Z,0.00
2022-08-09T00:40:52.657Z,0.00
2022-08-09T00:44:10.960Z,0.00
2022-08-09T00:44:11.923Z,0.00
2022-08-09T00:44:14.429Z,0.00
2022-08-09T00:44:41.108Z,0.00
2022-08-09T00:45:46.748Z,0.00
2022-08-09T00:46:56.327Z,0.00
2022-08-09T00:47:40.993Z,0.00
2022-08-09T00:48:40.991Z,0.00
2022-08-09T00:49:40.923Z,0.00
2022-08-09T00:50:40.882Z,0.00
2022-08-09T00:51:42.726Z,0.00
2022-08-09T00:52:40.809Z,0.00
2022-08-09T00:53:40.776Z,0.00
2022-08-09T00:54:40.743Z,0.00
2022-08-09T00:56:03.767Z,0.00
2022-08-09T00:56:40.660Z,0.00
2022-08-09T00:57:40.621Z,0.00
2022-08-09T00:58:40.583Z,0.00
2022-08-09T00:59:46.337Z,0.00
2022-08-09T01:00:40.522Z,0.00
2022-08-09T01:01:44.383Z,0.00
2022-08-09T01:02:40.435Z,0.00
2022-08-09T01:03:40.708Z,0.00
2022-08-09T01:04:40.362Z,0.00
2022-08-09T01:05:53.160Z,0.00
2022-08-09T01:06:53.839Z,0.00
2022-08-09T01:08:00.367Z,0.00
2022-08-09T01:08:40.214Z,0.00
2022-08-09T01:09:40.173Z,0.00
2022-08-09T01:10:40.145Z,0.00
2022-08-09T01:11:40.109Z,0.00
2022-08-09T01:12:40.062Z,0.00
2022-08-09T01:13:53.433Z,0.00
2022-08-09T01:14:39.986Z,0.00
2022-08-09T01:15:41.052Z,0.00
2022-08-09T01:16:39.922Z,0.00
2022-08-09T01:17:39.873Z,0.00
2022-08-09T01:18:39.852Z,0.00
2022-08-09T01:19:51.570Z,0.00
2022-08-09T01:20:39.763Z,0.00
2022-08-09T01:21:44.884Z,0.00
2022-08-09T01:22:39.687Z,0.00
2022-08-09T01:24:03.677Z,0.00
2022-08-09T01:24:39.614Z,0.00
2022-08-09T01:25:41.653Z,0.00
2022-08-09T01:26:39.538Z,0.00
2022-08-09T01:27:39.500Z,0.00
2022-08-09T01:28:39.472Z,0.00
2022-08-09T01:29:41.206Z,0.00
2022-08-09T01:30:51.911Z,0.00
2022-08-09T01:32:32.230Z,0.00
2022-08-09T01:32:39.439Z,0.00
2022-08-09T01:33:39.303Z,0.00
2022-08-09T01:34:39.241Z,0.00
2022-08-09T01:35:39.280Z,0.00
2022-08-09T01:36:39.258Z,0.00
2022-08-09T01:38:05.751Z,0.00
2022-08-09T01:38:40.048Z,0.00
2022-08-09T01:39:39.080Z,0.00
2022-08-09T01:40:39.014Z,0.00
2022-08-09T01:41:38.977Z,0.00
2022-08-09T01:42:38.941Z,0.00
2022-08-09T01:43:50.522Z,0.00
2022-08-09T01:44:38.878Z,0.00
2022-08-09T01:45:46.136Z,0.00
2022-08-09T01:46:38.791Z,0.00
2022-08-09T01:47:44.611Z,0.00
2022-08-09T01:48:38.715Z,0.00
2022-08-09T01:49:39.197Z,0.00
2022-08-09T01:50:41.915Z,0.00
2022-08-09T01:51:38.605Z,0.00
2022-08-09T01:52:41.376Z,0.00
2022-08-09T01:53:41.673Z,0.00
2022-08-09T01:54:38.492Z,0.00
2022-08-09T01:55:38.749Z,0.00
2022-08-09T01:56:38.427Z,0.00
2022-08-09T01:57:40.351Z,0.00
2022-08-09T01:58:38.341Z,0.00
2022-08-09T01:59:41.065Z,0.00
2022-08-09T02:00:38.266Z,0.00
2022-08-09T02:01:59.727Z,0.00
2022-08-09T02:02:38.202Z,0.00
2022-08-09T02:03:38.153Z,0.00
2022-08-09T02:04:40.601Z,0.00
2022-08-09T02:06:03.227Z,0.00
2022-08-09T02:06:38.044Z,0.00
2022-08-09T02:08:41.161Z,0.00
2022-08-09T02:08:57.330Z,0.00
2022-08-09T02:09:42.197Z,0.00
2022-08-09T02:10:37.892Z,0.00
2022-08-09T02:11:42.539Z,0.00
2022-08-09T02:12:37.832Z,0.00
2022-08-09T02:13:40.667Z,0.00
2022-08-09T02:14:37.749Z,0.00
2022-08-09T02:15:49.236Z,0.00
2022-08-09T02:16:59.402Z,0.00
2022-08-09T02:18:10.230Z,0.00
2022-08-09T02:18:37.592Z,0.00
2022-08-09T02:19:42.957Z,0.00
2022-08-09T02:20:37.526Z,0.00
2022-08-09T02:21:38.387Z,0.00
2022-08-09T02:22:37.443Z,0.00
2022-08-09T02:23:39.931Z,0.00
2022-08-09T02:24:37.368Z,0.00
2022-08-09T02:25:42.680Z,0.00
2022-08-09T02:26:37.292Z,0.00
2022-08-09T02:27:57.891Z,0.00
2022-08-09T02:28:37.220Z,0.00
2022-08-09T02:29:37.180Z,0.00
2022-08-09T02:30:37.142Z,0.00
2022-08-09T02:31:37.119Z,0.00
2022-08-09T02:32:37.067Z,0.00
2022-08-09T02:33:58.256Z,0.00
2022-08-09T02:34:40.205Z,0.00
2022-08-09T02:36:02.710Z,0.00
2022-08-09T02:36:36.917Z,0.00
2022-08-09T02:37:36.916Z,0.00
2022-08-09T02:38:36.844Z,0.00
2022-08-09T02:39:42.149Z,0.00
2022-08-09T02:40:36.874Z,0.00
2022-08-09T02:41:36.733Z,0.00
2022-08-09T02:42:36.689Z,0.00
2022-08-09T02:43:42.261Z,0.00
2022-08-09T02:44:36.619Z,0.00
2022-08-09T02:45:36.579Z,0.00
2022-08-09T02:46:36.541Z,0.00
2022-08-09T02:47:57.442Z,0.00
2022-08-09T02:48:36.468Z,0.00
2022-08-09T02:49:38.890Z,0.00
2022-08-09T02:50:36.394Z,0.00
2022-08-09T02:51:40.018Z,0.00
2022-08-09T02:52:36.315Z,0.00
2022-08-09T02:53:36.278Z,0.00
2022-08-09T02:54:36.242Z,0.00
2022-08-09T02:55:46.426Z,0.00
2022-08-09T02:56:36.520Z,0.00
2022-08-09T02:57:40.595Z,0.00
2022-08-09T02:58:38.092Z,0.00
2022-08-09T02:59:36.889Z,0.00
2022-08-09T03:00:36.054Z,0.00
2022-08-09T03:01:43.350Z,0.00
2022-08-09T03:02:36.377Z,0.00
2022-08-09T03:04:12.842Z,0.00
2022-08-09T03:04:35.878Z,0.00
2022-08-09T03:05:35.827Z,0.00
2022-08-09T03:06:36.120Z,0.00
2022-08-09T03:07:35.751Z,0.00
2022-08-09T03:08:35.720Z,0.00
2022-08-09T03:09:35.678Z,0.00
2022-08-09T03:10:35.662Z,0.00
2022-08-09T03:12:05.205Z,0.00
2022-08-09T03:12:35.565Z,0.00
2022-08-09T03:13:43.372Z,0.00
2022-08-09T03:14:36.681Z,0.00
2022-08-09T03:15:40.400Z,0.00
2022-08-09T03:16:38.502Z,0.00
2022-08-09T03:17:35.373Z,0.00
2022-08-09T03:18:35.336Z,0.00
2022-08-09T03:19:52.660Z,0.00
2022-08-09T03:20:35.261Z,0.00
2022-08-09T03:21:39.619Z,0.00
2022-08-09T03:22:41.707Z,0.00
2022-08-09T03:23:35.146Z,0.00
2022-08-09T03:24:51.878Z,0.00
2022-08-09T03:25:59.005Z,0.00
2022-08-09T03:26:35.036Z,0.00
2022-08-09T03:27:44.566Z,0.00
2022-08-09T03:28:34.990Z,0.00
2022-08-09T03:29:35.775Z,0.00
2022-08-09T03:30:36.798Z,0.00
2022-08-09T03:31:34.843Z,0.00
2022-08-09T03:32:36.828Z,0.00
2022-08-09T03:33:54.002Z,0.00
2022-08-09T03:34:34.733Z,0.00
2022-08-09T03:35:44.465Z,0.00
2022-08-09T03:36:34.658Z,0.00
2022-08-09T03:37:55.982Z,0.00
2022-08-09T03:38:34.584Z,0.00
2022-08-09T03:39:37.994Z,0.00
2022-08-09T03:40:34.507Z,0.00
2022-08-09T03:41:45.772Z,0.00
2022-08-09T03:42:34.537Z,0.00
2022-08-09T03:43:34.394Z,0.00
2022-08-09T03:44:34.355Z,0.00
2022-08-09T03:46:05.449Z,0.00
2022-08-09T03:46:34.313Z,0.00
2022-08-09T03:47:36.688Z,0.00
2022-08-09T03:48:34.209Z,0.00
2022-08-09T03:49:35.553Z,0.00
2022-08-09T03:50:34.142Z,0.00
2022-08-09T03:51:55.031Z,0.00
2022-08-09T03:52:34.326Z,0.00
2022-08-09T03:53:36.966Z,0.00
2022-08-09T03:54:34.519Z,0.00
2022-08-09T03:55:36.289Z,0.00
2022-08-09T03:56:33.902Z,5.63
2022-08-09T03:57:33.875Z,5.63
2022-08-09T03:58:33.826Z,5.63
2022-08-09T03:59:43.197Z,5.63
2022-08-09T04:00:33.795Z,5.63
2022-08-09T04:01:33.735Z,5.63
2022-08-09T04:02:34.094Z,5.63
2022-08-09T04:03:45.802Z,11.25
2022-08-09T04:04:38.652Z,11.25
2022-08-09T04:05:33.563Z,11.25
2022-08-09T04:06:33.525Z,11.25
2022-08-09T04:07:47.836Z,11.25
2022-08-09T04:08:33.473Z,16.88
2022-08-09T04:09:48.441Z,16.88
2022-08-09T04:10:33.372Z,16.88
2022-08-09T04:11:33.343Z,16.88
2022-08-09T04:12:33.302Z,22.50
2022-08-09T04:14:37.345Z,22.50
2022-08-09T04:14:53.223Z,22.50
2022-08-09T04:15:52.027Z,28.13
2022-08-09T04:16:33.146Z,28.13
2022-08-09T04:17:33.114Z,28.13
2022-08-09T04:18:33.070Z,33.75
2022-08-09T04:19:42.782Z,33.75
2022-08-09T04:20:33.008Z,33.75
2022-08-09T04:21:38.529Z,39.38
2022-08-09T04:22:33.188Z,39.38
2022-08-09T04:23:32.898Z,39.38
2022-08-09T04:24:33.367Z,45.00
2022-08-09T04:25:32.811Z,45.00
2022-08-09T04:26:35.254Z,50.63
2022-08-09T04:27:32.930Z,50.63
2022-08-09T04:28:36.064Z,56.25
2022-08-09T04:29:32.666Z,56.25
2022-08-09T04:30:32.649Z,56.25
2022-08-09T04:31:37.569Z,61.88
2022-08-09T04:32:34.041Z,61.88
2022-08-09T04:33:32.506Z,67.50
2022-08-09T04:34:32.465Z,67.50
2022-08-09T04:35:32.861Z,73.13
2022-08-09T04:36:32.401Z,73.13
2022-08-09T04:37:44.273Z,78.75
2022-08-09T04:38:32.315Z,78.75
2022-08-09T04:39:32.305Z,84.38
2022-08-09T04:40:36.655Z,84.38
2022-08-09T04:41:33.816Z,90.00
2022-08-09T04:42:32.592Z,90.00
2022-08-09T04:43:33.563Z,90.00
2022-08-09T04:44:32.089Z,95.63
2022-08-09T04:45:36.170Z,95.63
2022-08-09T04:46:36.621Z,101.25
2022-08-09T04:47:45.168Z,101.25
2022-08-09T04:48:33.353Z,106.88
2022-08-09T04:49:52.144Z,106.88
2022-08-09T04:50:34.910Z,112.50
2022-08-09T04:51:33.416Z,112.50
2022-08-09T04:52:31.795Z,112.50
2022-08-09T04:53:31.786Z,118.13
2022-08-09T04:54:31.719Z,118.13
2022-08-09T04:55:39.594Z,123.75
2022-08-09T04:56:31.641Z,123.75
2022-08-09T04:57:59.242Z,129.38
2022-08-09T04:58:32.885Z,129.38
2022-08-09T04:59:31.552Z,135.00
2022-08-09T05:00:31.887Z,135.00
2022-08-09T05:01:32.543Z,140.63
2022-08-09T05:02:31.703Z,140.63
2022-08-09T05:03:42.472Z,140.63
2022-08-09T05:04:31.648Z,146.25
2022-08-09T05:05:51.828Z,146.25
2022-08-09T05:06:35.673Z,151.88
2022-08-09T05:07:32.084Z,157.50
2022-08-09T05:08:31.195Z,180.00
2022-08-09T05:09:42.298Z,225.00
2022-08-09T05:10:31.127Z,275.63
2022-08-09T05:11:32.525Z,320.63
2022-08-09T05:12:31.204Z,326.25
2022-08-09T05:13:32.858Z,331.88
2022-08-09T05:14:30.971Z,343.13
2022-08-09T05:15:38.445Z,348.75
2022-08-09T05:16:31.730Z,354.38
2022-08-09T05:18:38.601Z,360.00
2022-08-09T05:18:38.948Z,354.38
2022-08-09T05:19:44.541Z,371.25
2022-08-09T05:20:30.750Z,376.88
2022-08-09T05:21:46.628Z,382.50
2022-08-09T05:22:35.696Z,388.13
2022-08-09T05:23:53.557Z,393.75
2022-08-09T05:24:30.610Z,399.38
2022-08-09T05:25:32.596Z,405.00
2022-08-09T05:26:37.523Z,410.63
2022-08-09T05:27:31.137Z,416.25
2022-08-09T05:28:30.468Z,421.88
2022-08-09T05:29:31.592Z,427.50
2022-08-09T05:30:31.341Z,433.13
2022-08-09T05:31:44.416Z,444.38
2022-08-09T05:32:30.429Z,444.38
2022-08-09T05:33:32.977Z,450.00
2022-08-09T05:34:32.081Z,461.25
2022-08-09T05:35:30.214Z,466.88
2022-08-09T05:36:30.182Z,466.88
2022-08-09T05:37:30.144Z,472.50
2022-08-09T05:38:30.114Z,478.13
2022-08-09T05:39:35.636Z,483.75
2022-08-09T05:40:30.053Z,489.38
2022-08-09T05:41:30.009Z,495.00
2022-08-09T05:42:29.971Z,500.63
2022-08-09T05:43:31.969Z,506.25
2022-08-09T05:44:32.882Z,511.88
2022-08-09T05:45:52.764Z,517.50
2022-08-09T05:46:29.848Z,528.75
2022-08-09T05:47:30.458Z,528.75
2022-08-09T05:48:33.259Z,534.38
2022-08-09T05:50:23.337Z,540.00
2022-08-09T05:50:50.653Z,545.63
2022-08-09T05:51:42.974Z,551.25
2022-08-09T05:52:31.602Z,556.88
2022-08-09T05:53:32.036Z,556.88
2022-08-09T05:54:29.569Z,562.50
2022-08-09T05:55:29.535Z,573.75
2022-08-09T05:56:29.514Z,585.00
2022-08-09T05:57:55.255Z,585.00
2022-08-09T05:58:29.453Z,590.63
2022-08-09T05:59:29.404Z,596.25
2022-08-09T06:00:29.805Z,596.25
2022-08-09T06:01:34.185Z,601.88
2022-08-09T06:02:29.382Z,607.50
2022-08-09T06:03:34.924Z,607.50
2022-08-09T06:04:34.828Z,613.13
2022-08-09T06:05:30.676Z,624.38
2022-08-09T06:06:29.172Z,624.38
2022-08-09T06:07:29.140Z,630.00
2022-08-09T06:08:29.115Z,635.63
2022-08-09T06:09:55.162Z,641.25
2022-08-09T06:10:29.060Z,652.50
2022-08-09T06:11:41.184Z,658.13
2022-08-09T06:12:29.074Z,663.75
2022-08-09T06:13:33.780Z,663.75
2022-08-09T06:14:28.909Z,669.38
2022-08-09T06:15:28.880Z,675.00
2022-08-09T06:16:28.855Z,680.63
2022-08-09T06:17:39.837Z,686.25
2022-08-09T06:18:28.782Z,691.88
2022-08-09T06:19:28.754Z,697.50
2022-08-09T06:20:28.715Z,714.38
2022-08-09T06:21:28.686Z,714.38
2022-08-09T06:22:29.134Z,720.00
2022-08-09T06:23:55.816Z,720.00
2022-08-09T06:24:28.587Z,714.38
2022-08-09T06:25:28.565Z,720.00
2022-08-09T06:26:28.963Z,720.00
2022-08-09T06:27:43.019Z,725.63
2022-08-09T06:28:32.029Z,736.88
2022-08-09T06:29:28.425Z,736.88
2022-08-09T06:30:28.388Z,748.13
2022-08-09T06:31:31.301Z,753.75
2022-08-09T06:32:59.853Z,770.63
2022-08-09T06:33:41.303Z,781.88
2022-08-09T06:34:29.889Z,787.50
2022-08-09T06:35:55.652Z,793.13
2022-08-09T06:36:29.888Z,810.00
2022-08-09T06:37:28.964Z,826.88
2022-08-09T06:38:36.321Z,838.13
2022-08-09T06:39:48.422Z,860.63
2022-08-09T06:40:28.201Z,871.88
2022-08-09T06:41:58.870Z,888.75
2022-08-09T06:42:28.471Z,911.25
2022-08-09T06:43:34.202Z,939.38
2022-08-09T06:44:27.942Z,961.88
2022-08-09T06:46:06.940Z,990.00
2022-08-09T06:46:40.425Z,1029.38
2022-08-09T06:47:30.322Z,1085.63
2022-08-09T06:48:30.408Z,1147.50
2022-08-09T06:49:44.499Z,1231.88
2022-08-09T06:50:27.748Z,1293.75
2022-08-09T06:51:28.173Z,1355.63
2022-08-09T06:52:27.700Z,1395.00
2022-08-09T06:53:27.655Z,1428.75
2022-08-09T06:54:27.622Z,1541.25
2022-08-09T06:55:27.592Z,1575.00
2022-08-09T06:56:30.557Z,1530.00
2022-08-09T06:58:01.558Z,1513.13
2022-08-09T06:58:40.943Z,1513.13
2022-08-09T07:00:50.576Z,1445.63
2022-08-09T07:00:54.212Z,1507.50
2022-08-09T07:01:27.594Z,1423.13
2022-08-09T07:02:31.100Z,1395.00
2022-08-09T07:03:28.388Z,1440.00
2022-08-09T07:04:27.305Z,1423.13
2022-08-09T07:05:58.548Z,1321.88
2022-08-09T07:06:29.604Z,1271.25
2022-08-09T07:07:59.534Z,1265.63
2022-08-09T07:08:27.191Z,1243.13
2022-08-09T07:09:55.277Z,1215.00
2022-08-09T07:10:31.334Z,1175.63
2022-08-09T07:11:27.080Z,1175.63
2022-08-09T07:12:38.053Z,1164.38
2022-08-09T07:13:28.167Z,1158.75
2022-08-09T07:14:26.997Z,1147.50
2022-08-09T07:16:39.611Z,1130.63
2022-08-09T07:16:42.868Z,1108.13
2022-08-09T07:17:26.890Z,1108.13
2022-08-09T07:18:26.860Z,1102.50
2022-08-09T07:19:27.325Z,1080.00
2022-08-09T07:20:26.803Z,1068.75
2022-08-09T07:21:26.765Z,1074.38
2022-08-09T07:22:34.747Z,1068.75
2022-08-09T07:23:26.699Z,1068.75
2022-08-09T07:24:32.155Z,1063.13
2022-08-09T07:25:26.652Z,1063.13
2022-08-09T07:26:26.606Z,1051.88
2022-08-09T07:27:34.034Z,1046.25
2022-08-09T07:28:28.293Z,1046.25
2022-08-09T07:29:26.509Z,1046.25
2022-08-09T07:30:31.103Z,1051.88
2022-08-09T07:31:26.457Z,1051.88
2022-08-09T07:32:32.445Z,1057.50
2022-08-09T07:33:26.385Z,1063.13
2022-08-09T07:34:26.356Z,1063.13
2022-08-09T07:35:26.324Z,1063.13
2022-08-09T07:36:26.291Z,1068.75
2022-08-09T07:37:26.267Z,1068.75
2022-08-09T07:38:26.225Z,1080.00
2022-08-09T07:39:40.460Z,1085.63
2022-08-09T07:40:27.831Z,1080.00
2022-08-09T07:41:26.138Z,1085.63
2022-08-09T07:42:32.844Z,1091.25
2022-08-09T07:43:29.032Z,1096.88
2022-08-09T07:44:51.071Z,1102.50
2022-08-09T07:45:38.169Z,1108.13
2022-08-09T07:46:27.889Z,1113.75
2022-08-09T07:47:25.954Z,1130.63
2022-08-09T07:48:30.387Z,1136.25
2022-08-09T07:49:25.899Z,1136.25
2022-08-09T07:50:34.961Z,1141.88
2022-08-09T07:52:05.814Z,1147.50
2022-08-09T07:52:25.795Z,1153.13
2022-08-09T07:53:36.473Z,1164.38
2022-08-09T07:54:27.716Z,1170.00
2022-08-09T07:55:28.679Z,1175.63
2022-08-09T07:56:27.130Z,1186.88
2022-08-09T07:57:36.265Z,1203.75
2022-08-09T07:58:26.296Z,1203.75
2022-08-09T07:59:34.031Z,1215.00
2022-08-09T08:00:35.695Z,1226.25
2022-08-09T08:01:33.179Z,1237.50
2022-08-09T08:02:25.535Z,1248.75
2022-08-09T08:03:26.960Z,1254.38
2022-08-09T08:04:31.328Z,1271.25
2022-08-09T08:05:25.433Z,1271.25
2022-08-09T08:06:31.870Z,1276.88
2022-08-09T08:08:06.654Z,1299.38
2022-08-09T08:09:01.456Z,1305.00
2022-08-09T08:09:39.719Z,1316.25
2022-08-09T08:10:27.277Z,1333.13
2022-08-09T08:12:24.594Z,1344.38
2022-08-09T08:12:36.468Z,1366.88
2022-08-09T08:13:25.153Z,1378.13
2022-08-09T08:14:25.771Z,1400.63
2022-08-09T08:15:25.089Z,1406.25
2022-08-09T08:16:31.618Z,1423.13
2022-08-09T08:17:51.918Z,1445.63
2022-08-09T08:18:25.001Z,1468.13
2022-08-09T08:19:29.173Z,1496.25
2022-08-09T08:20:29.284Z,1513.13
2022-08-09T08:21:24.907Z,1530.00
2022-08-09T08:22:25.791Z,1552.50
2022-08-09T08:23:27.201Z,1580.63
2022-08-09T08:24:24.834Z,1620.00
2022-08-09T08:25:24.788Z,1648.13
2022-08-09T08:26:41.730Z,1676.25
2022-08-09T08:27:26.146Z,1715.63
2022-08-09T08:28:32.374Z,1755.00
2022-08-09T08:29:27.797Z,1788.75
2022-08-09T08:30:24.676Z,1839.38
2022-08-09T08:31:24.694Z,1873.13
2022-08-09T08:32:29.425Z,1923.75
2022-08-09T08:33:24.831Z,1974.38
2022-08-09T08:34:25.622Z,2025.00
2022-08-09T08:35:24.497Z,2086.88
2022-08-09T08:36:31.567Z,2137.50
2022-08-09T08:37:25.134Z,2188.13
2022-08-09T08:38:24.404Z,2233.13
2022-08-09T08:39:24.416Z,2311.88
2022-08-09T08:40:24.345Z,2373.75
2022-08-09T08:41:24.342Z,2446.88
2022-08-09T08:42:32.087Z,2491.88
2022-08-09T08:43:24.258Z,2570.63
2022-08-09T08:44:28.870Z,2643.75
2022-08-09T08:45:37.749Z,2722.50
2022-08-09T08:46:33.133Z,2812.50
2022-08-09T08:47:24.250Z,2846.25
2022-08-09T08:48:29.252Z,2874.38
2022-08-09T08:49:33.317Z,2930.63
2022-08-09T08:50:24.055Z,2975.63
2022-08-09T08:51:24.022Z,3026.25
2022-08-09T08:52:58.123Z,3093.75
2022-08-09T08:53:23.967Z,3144.38
2022-08-09T08:54:29.922Z,3161.25
2022-08-09T08:55:24.670Z,3200.63
2022-08-09T08:56:25.082Z,3256.88
2022-08-09T08:57:23.850Z,3285.00
2022-08-09T08:58:27.146Z,3352.50
2022-08-09T08:59:23.794Z,3408.75
2022-08-09T09:00:27.914Z,3403.13
2022-08-09T09:01:24.887Z,3414.38
2022-08-09T09:02:31.415Z,3414.38
2022-08-09T09:03:33.087Z,3476.25
2022-08-09T09:04:26.765Z,3538.13
2022-08-09T09:05:57.720Z,3594.38
2022-08-09T09:06:23.594Z,3611.25
2022-08-09T09:07:23.564Z,3616.88
2022-08-09T09:08:30.687Z,3650.63
2022-08-09T09:09:58.745Z,3650.63
2022-08-09T09:10:23.492Z,3645.00
2022-08-09T09:11:23.448Z,3718.13
2022-08-09T09:12:23.419Z,3763.13
2022-08-09T09:13:23.392Z,3757.50
2022-08-09T09:14:23.361Z,3768.75
2022-08-09T09:15:28.649Z,3813.75
2022-08-09T09:16:29.936Z,3864.38
2022-08-09T09:17:23.276Z,3864.38
2022-08-09T09:18:23.250Z,3870.00
2022-08-09T09:19:40.184Z,3886.88
2022-08-09T09:20:23.206Z,3875.63
2022-08-09T09:21:25.932Z,3853.13
2022-08-09T09:22:28.590Z,3898.13
2022-08-09T09:23:23.106Z,3937.50
2022-08-09T09:24:23.077Z,3937.50
2022-08-09T09:26:04.937Z,3943.13
2022-08-09T09:26:23.032Z,3976.88
2022-08-09T09:28:06.017Z,3960.00
2022-08-09T09:29:01.780Z,3954.38
2022-08-09T09:29:22.935Z,3971.25
2022-08-09T09:30:41.065Z,3988.13
2022-08-09T09:32:06.692Z,4044.38
2022-08-09T09:32:34.334Z,4072.50
2022-08-09T09:33:23.784Z,3993.75
2022-08-09T09:34:22.792Z,3948.75
2022-08-09T09:35:22.769Z,4005.00
2022-08-09T09:36:22.741Z,4066.88
2022-08-09T09:37:22.714Z,4072.50
2022-08-09T09:38:27.811Z,4050.00
2022-08-09T09:39:22.729Z,4072.50
2022-08-09T09:40:22.645Z,4083.75
2022-08-09T09:41:22.599Z,4106.25
2022-08-09T09:42:22.568Z,4111.88
2022-08-09T09:43:22.539Z,4038.75
2022-08-09T09:44:25.384Z,4066.88
2022-08-09T09:45:26.273Z,4095.00
2022-08-09T09:47:22.427Z,4061.25
2022-08-09T09:48:22.405Z,4168.13
2022-08-09T09:49:31.927Z,4213.13
2022-08-09T09:50:23.073Z,4196.25
2022-08-09T09:51:38.170Z,4140.00
2022-08-09T09:52:35.938Z,4100.63
2022-08-09T09:53:43.924Z,4095.00
2022-08-09T09:54:22.227Z,4168.13
2022-08-09T09:55:28.532Z,4173.75
2022-08-09T09:56:31.653Z,4123.13
2022-08-09T09:58:02.278Z,4111.88
2022-08-09T09:58:22.117Z,4134.38
2022-08-09T09:59:24.448Z,4140.00
2022-08-09T10:00:22.182Z,4100.63
2022-08-09T10:01:31.352Z,4050.00
2022-08-09T10:02:22.018Z,4027.50
2022-08-09T10:03:22.281Z,3903.75
2022-08-09T10:04:30.574Z,3594.38
2022-08-09T10:05:21.923Z,3965.63
2022-08-09T10:06:21.908Z,3909.38
2022-08-09T10:07:24.064Z,3853.13
2022-08-09T10:08:27.738Z,3875.63
2022-08-09T10:09:23.863Z,1012.50
2022-08-09T10:10:21.780Z,3931.88
2022-08-09T10:12:07.743Z,2795.63
2022-08-09T10:12:28.137Z,3909.38
2022-08-09T10:13:42.815Z,3757.50
2022-08-09T10:14:30.664Z,3847.50
2022-08-09T10:15:25.609Z,3915.00
2022-08-09T10:16:57.223Z,3909.38
2022-08-09T10:17:50.507Z,3858.75
2022-08-09T10:18:21.556Z,3858.75
2022-08-09T10:19:21.527Z,3892.50
2022-08-09T10:20:27.111Z,3853.13
2022-08-09T10:21:21.472Z,3892.50
2022-08-09T10:22:29.295Z,3948.75
2022-08-09T10:23:22.147Z,3999.38
2022-08-09T10:24:25.773Z,4089.38
2022-08-09T10:25:21.367Z,4083.75
2022-08-09T10:26:21.332Z,4005.00
2022-08-09T10:27:28.537Z,3993.75
2022-08-09T10:28:21.290Z,4005.00
2022-08-09T10:30:08.999Z,4044.38
2022-08-09T10:32:38.687Z,2795.63
2022-08-09T10:33:29.697Z,3864.38
2022-08-09T10:34:33.689Z,3864.38
2022-08-09T10:35:21.080Z,3780.00
2022-08-09T10:36:21.064Z,3948.75
2022-08-09T10:37:21.023Z,1991.25
2022-08-09T10:38:55.509Z,3965.63
2022-08-09T10:39:20.991Z,3510.00
2022-08-09T10:40:32.479Z,3976.88
2022-08-09T10:41:21.042Z,3926.25
2022-08-09T10:42:20.891Z,3903.75
2022-08-09T10:43:20.853Z,3881.25
2022-08-09T10:44:21.588Z,3881.25
2022-08-09T10:45:20.791Z,3931.88
2022-08-09T10:46:25.194Z,3920.63
2022-08-09T10:48:19.424Z,3909.38
2022-08-09T10:48:30.165Z,3858.75
2022-08-09T10:49:20.686Z,3853.13
2022-08-09T10:50:27.098Z,3915.00
2022-08-09T10:51:20.625Z,3875.63
2022-08-09T10:52:20.754Z,3825.00
2022-08-09T10:53:23.079Z,3796.88
2022-08-09T10:54:20.545Z,3740.63
2022-08-09T10:55:20.513Z,3768.75
2022-08-09T10:56:22.765Z,3768.75
2022-08-09T10:57:20.462Z,3791.25
2022-08-09T10:58:25.572Z,3796.88
2022-08-09T10:59:20.400Z,3847.50
2022-08-09T11:00:20.374Z,3847.50
2022-08-09T11:03:11.854Z,3853.13
2022-08-09T11:03:13.913Z,933.75
2022-08-09T11:03:46.967Z,3718.13
2022-08-09T11:04:30.437Z,3931.88
2022-08-09T11:05:25.340Z,3678.75
2022-08-09T11:06:20.204Z,2767.50
2022-08-09T11:07:20.188Z,978.75
2022-08-09T11:08:30.236Z,3605.63
2022-08-09T11:09:20.122Z,3285.00
2022-08-09T11:10:20.093Z,3650.63
2022-08-09T11:11:20.058Z,2008.13
2022-08-09T11:12:20.282Z,2379.38
2022-08-09T11:13:21.759Z,3566.25
2022-08-09T11:14:28.331Z,2891.25
2022-08-09T11:15:19.949Z,3695.63
2022-08-09T11:16:33.687Z,2953.13
2022-08-09T11:17:19.891Z,3037.50
2022-08-09T11:18:19.863Z,2086.88
2022-08-09T11:19:19.847Z,2671.88
2022-08-09T11:20:22.971Z,3661.88
2022-08-09T11:21:19.777Z,3723.75
2022-08-09T11:22:25.704Z,3729.38
2022-08-09T11:23:24.105Z,3476.25
2022-08-09T11:24:19.696Z,3768.75
2022-08-09T11:25:19.672Z,3650.63
2022-08-09T11:26:21.014Z,3678.75
2022-08-09T11:27:25.477Z,3723.75
2022-08-09T11:28:27.750Z,3712.50
2022-08-09T11:29:19.555Z,1074.38
2022-08-09T11:30:21.744Z,3813.75
2022-08-09T11:31:33.750Z,3785.63
2022-08-09T11:32:19.480Z,3774.38
2022-08-09T11:33:19.443Z,3813.75
2022-08-09T11:34:19.405Z,3858.75
2022-08-09T11:35:21.005Z,3841.88
2022-08-09T11:36:30.341Z,3870.00
2022-08-09T11:37:19.322Z,3898.13
2022-08-09T11:38:19.302Z,3898.13
2022-08-09T11:39:19.346Z,3931.88
2022-08-09T11:40:19.239Z,3937.50
2022-08-09T11:41:19.213Z,3898.13
2022-08-09T11:42:19.198Z,3926.25
2022-08-09T11:43:19.158Z,3937.50
2022-08-09T11:44:19.129Z,3943.13
2022-08-09T11:45:19.116Z,3915.00
2022-08-09T11:46:32.917Z,3903.75
2022-08-09T11:47:19.042Z,3825.00
2022-08-09T11:48:25.087Z,3965.63
2022-08-09T11:49:28.086Z,3988.13
2022-08-09T11:50:54.186Z,3971.25
2022-08-09T11:52:53.916Z,4005.00
2022-08-09T11:53:02.836Z,3948.75
2022-08-09T11:53:57.738Z,3909.38
2022-08-09T11:54:28.246Z,3819.38
2022-08-09T11:55:18.823Z,3740.63
2022-08-09T11:56:19.568Z,3740.63
2022-08-09T11:57:28.234Z,3723.75
2022-08-09T11:58:19.700Z,3751.88
2022-08-09T11:59:18.714Z,3751.88
2022-08-09T12:00:22.827Z,3650.63
2022-08-09T12:01:37.526Z,3723.75
2022-08-09T12:02:37.333Z,3673.13
2022-08-09T12:03:54.999Z,3661.88
2022-08-09T12:04:23.541Z,3656.25
2022-08-09T12:05:22.899Z,1006.88
2022-08-09T12:06:18.534Z,3487.50
2022-08-09T12:07:18.519Z,967.50
2022-08-09T12:08:21.616Z,1130.63
2022-08-09T12:09:20.869Z,1310.63
2022-08-09T12:10:40.102Z,1777.50
2022-08-09T12:11:18.395Z,3116.25
2022-08-09T12:12:20.212Z,3718.13
2022-08-09T12:14:09.856Z,3763.13
2022-08-09T12:14:36.861Z,3774.38
2022-08-09T12:15:18.273Z,3746.25
2022-08-09T12:16:37.923Z,3780.00
2022-08-09T12:17:34.597Z,3763.13
2022-08-09T12:18:18.189Z,3690.00
2022-08-09T12:19:18.160Z,3751.88
2022-08-09T12:20:22.447Z,3763.13
2022-08-09T12:21:28.618Z,3813.75
2022-08-09T12:22:18.077Z,3780.00
2022-08-09T12:23:18.049Z,3729.38
2022-08-09T12:24:18.024Z,3684.38
2022-08-09T12:25:17.998Z,3678.75
2022-08-09T12:26:19.617Z,3656.25
2022-08-09T12:29:14.483Z,3650.63
2022-08-09T12:29:15.118Z,3667.50
2022-08-09T12:29:33.577Z,3611.25
2022-08-09T12:30:36.213Z,3594.38
2022-08-09T12:31:58.122Z,3600.00
2022-08-09T12:32:17.812Z,3538.13
2022-08-09T12:33:17.776Z,3510.00
2022-08-09T12:34:17.762Z,3504.38
2022-08-09T12:35:21.655Z,3510.00
2022-08-09T12:36:31.487Z,3481.88
2022-08-09T12:37:23.883Z,3425.63